createdAt,value
2019-04-21T00:00:35.351Z,0.00
2019-04-21T00:01:38.767Z,0.00
2019-04-21T00:02:37.756Z,0.00
2019-04-21T00:03:40.704Z,0.00
2019-04-21T00:04:46.862Z,0.00
2019-04-21T00:05:52.927Z,0.00
2019-04-21T00:07:01.243Z,0.00
2019-04-21T00:07:50.713Z,0.00
2019-04-21T00:08:56.283Z,0.00
2019-04-21T00:11:59.864Z,0.00
2019-04-21T00:12:51.782Z,0.00
2019-04-21T00:13:49.615Z,0.00
2019-04-21T00:14:46.255Z,0.00
2019-04-21T00:15:40.636Z,0.00
2019-04-21T00:16:43.226Z,0.00
2019-04-21T00:17:35.022Z,0.00
2019-04-21T00:18:40.860Z,0.00
2019-04-21T00:20:42.454Z,0.00
2019-04-21T00:21:40.415Z,0.00
2019-04-21T00:24:46.208Z,0.00
2019-04-21T00:25:45.850Z,0.00
2019-04-21T00:26:55.673Z,0.00
2019-04-21T00:27:51.968Z,0.00
2019-04-21T00:28:59.497Z,0.00
2019-04-21T00:29:56.943Z,0.00
2019-04-21T00:31:45.809Z,0.00
2019-04-21T00:32:46.323Z,0.00
2019-04-21T00:33:37.099Z,0.00
2019-04-21T00:34:34.296Z,0.00
2019-04-21T00:35:41.378Z,0.00
2019-04-21T00:36:44.172Z,0.00
2019-04-21T00:37:53.462Z,0.00
2019-04-21T00:40:56.646Z,0.00
2019-04-21T00:41:54.332Z,0.00
2019-04-21T00:42:48.861Z,0.00
2019-04-21T00:43:44.742Z,0.00
2019-04-21T00:44:47.300Z,0.00
2019-04-21T00:45:44.676Z,0.00
2019-04-21T00:46:48.854Z,0.00
2019-04-21T00:47:52.927Z,0.00
2019-04-21T00:48:53.578Z,0.00
2019-04-21T00:49:56.540Z,0.00
2019-04-21T00:51:14.592Z,0.00
2019-04-21T00:52:04.019Z,0.00
2019-04-21T00:54:02.382Z,0.00
2019-04-21T00:54:58.557Z,0.00
2019-04-21T00:55:56.176Z,0.00
2019-04-21T00:56:56.741Z,0.00
2019-04-21T00:58:00.393Z,0.00
2019-04-21T00:58:53.732Z,0.00
2019-04-21T00:59:54.363Z,0.00
2019-04-21T01:00:51.378Z,0.00
2019-04-21T01:01:57.980Z,0.00
2019-04-21T01:02:57.597Z,0.00
2019-04-21T01:04:00.254Z,0.00
2019-04-21T01:05:00.003Z,0.00
2019-04-21T01:06:56.183Z,0.00
2019-04-21T01:07:50.712Z,0.00
2019-04-21T01:08:55.056Z,0.00
2019-04-21T01:09:49.058Z,0.00
2019-04-21T01:10:49.278Z,0.00
2019-04-21T01:11:59.616Z,0.00
2019-04-21T01:12:54.676Z,0.00
2019-04-21T01:14:01.040Z,0.00
2019-04-21T01:14:56.101Z,0.00
2019-04-21T01:15:53.330Z,0.00
2019-04-21T01:16:58.182Z,0.00
2019-04-21T01:17:54.632Z,0.00
2019-04-21T01:18:49.319Z,0.00
2019-04-21T01:19:47.036Z,0.00
2019-04-21T01:21:31.937Z,0.00
2019-04-21T01:22:31.913Z,0.00
2019-04-21T01:23:33.641Z,0.00
2019-04-21T01:24:36.131Z,0.00
2019-04-21T01:25:40.449Z,0.00
2019-04-21T01:26:44.898Z,0.00
2019-04-21T01:27:50.728Z,0.00
2019-04-21T01:29:53.355Z,0.00
2019-04-21T01:30:55.368Z,0.00
2019-04-21T01:31:51.684Z,0.00
2019-04-21T01:33:50.602Z,0.00
2019-04-21T01:34:51.622Z,0.00
2019-04-21T01:35:48.462Z,0.00
2019-04-21T01:36:51.411Z,0.00
2019-04-21T01:38:10.993Z,0.00
2019-04-21T01:38:58.331Z,0.00
2019-04-21T01:40:52.954Z,0.00
2019-04-21T01:41:53.344Z,0.00
2019-04-21T01:42:53.935Z,0.00
2019-04-21T01:43:53.452Z,0.00
2019-04-21T01:44:53.530Z,0.00
2019-04-21T01:45:48.668Z,0.00
2019-04-21T01:46:49.041Z,0.00
2019-04-21T01:47:46.452Z,0.00
2019-04-21T01:48:45.944Z,0.00
2019-04-21T01:49:43.177Z,0.00
2019-04-21T01:50:51.034Z,0.00
2019-04-21T01:52:05.533Z,0.00
2019-04-21T01:53:14.701Z,0.00
2019-04-21T01:53:59.570Z,0.00
2019-04-21T01:54:55.215Z,0.00
2019-04-21T01:55:54.387Z,0.00
2019-04-21T01:56:51.346Z,0.00
2019-04-21T01:57:51.240Z,0.00
2019-04-21T01:58:42.900Z,0.00
2019-04-21T01:59:47.352Z,0.00
2019-04-21T02:00:45.571Z,0.00
2019-04-21T02:01:54.161Z,0.00
2019-04-21T02:03:58.270Z,0.00
2019-04-21T02:04:57.960Z,0.00
2019-04-21T02:06:00.059Z,0.00
2019-04-21T02:06:50.426Z,0.00
2019-04-21T02:07:49.455Z,0.00
2019-04-21T02:08:49.300Z,0.00
2019-04-21T02:09:49.211Z,0.00
2019-04-21T02:10:54.915Z,0.00
2019-04-21T02:11:56.755Z,0.00
2019-04-21T02:12:50.895Z,0.00
2019-04-21T02:15:00.759Z,0.00
2019-04-21T02:15:55.527Z,0.00
2019-04-21T02:16:54.094Z,0.00
2019-04-21T02:17:57.500Z,0.00
2019-04-21T02:18:52.973Z,0.00
2019-04-21T02:19:45.847Z,0.00
2019-04-21T02:20:43.461Z,0.00
2019-04-21T02:21:46.314Z,0.00
2019-04-21T02:23:06.086Z,0.00
2019-04-21T02:24:17.119Z,0.00
2019-04-21T02:24:56.752Z,0.00
2019-04-21T02:26:55.917Z,0.00
2019-04-21T02:27:57.779Z,0.00
2019-04-21T02:28:55.842Z,0.00
2019-04-21T02:29:55.623Z,0.00
2019-04-21T02:31:05.965Z,0.00
2019-04-21T02:32:01.869Z,0.00
2019-04-21T02:33:58.621Z,0.00
2019-04-21T02:35:14.623Z,0.00
2019-04-21T02:36:15.096Z,0.00
2019-04-21T02:37:19.571Z,0.00
2019-04-21T02:39:08.374Z,0.00
2019-04-21T02:40:05.095Z,0.00
2019-04-21T02:43:07.512Z,0.00
2019-04-21T02:44:59.865Z,0.00
2019-04-21T02:46:10.562Z,0.00
2019-04-21T02:49:07.180Z,0.00
2019-04-21T02:50:52.956Z,0.00
2019-04-21T02:52:01.589Z,0.00
2019-04-21T02:53:07.116Z,0.00
2019-04-21T02:54:34.069Z,0.00
2019-04-21T02:55:02.345Z,0.00
2019-04-21T02:56:00.709Z,0.00
2019-04-21T02:57:04.672Z,0.00
2019-04-21T02:58:07.550Z,0.00
2019-04-21T02:58:59.394Z,0.00
2019-04-21T03:01:03.306Z,0.00
2019-04-21T03:02:17.225Z,0.00
2019-04-21T03:03:06.429Z,0.00
2019-04-21T03:04:00.688Z,0.00
2019-04-21T03:05:09.261Z,0.00
2019-04-21T03:05:58.635Z,0.00
2019-04-21T03:07:11.404Z,0.00
2019-04-21T03:08:14.360Z,0.00
2019-04-21T03:08:59.085Z,0.00
2019-04-21T03:10:02.315Z,0.00
2019-04-21T03:11:05.299Z,0.00
2019-04-21T03:13:06.060Z,0.00
2019-04-21T03:14:14.024Z,0.00
2019-04-21T03:16:09.796Z,0.00
2019-04-21T03:17:03.453Z,0.00
2019-04-21T03:18:12.641Z,0.00
2019-04-21T03:19:06.807Z,0.00
2019-04-21T03:20:03.110Z,0.00
2019-04-21T03:21:10.869Z,0.00
2019-04-21T03:22:05.201Z,0.00
2019-04-21T03:25:21.367Z,0.00
2019-04-21T03:26:20.703Z,0.00
2019-04-21T03:27:09.831Z,0.00
2019-04-21T03:28:08.286Z,0.00
2019-04-21T03:30:01.027Z,0.00
2019-04-21T03:31:24.997Z,0.00
2019-04-21T03:35:33.988Z,4.00
2019-04-21T03:38:59.139Z,4.00
2019-04-21T03:40:05.170Z,4.00
2019-04-21T03:42:57.159Z,4.00
2019-04-21T03:43:59.314Z,8.00
2019-04-21T03:48:05.126Z,16.00
2019-04-21T03:49:02.336Z,16.00
2019-04-21T03:50:07.122Z,20.00
2019-04-21T03:50:56.307Z,20.00
2019-04-21T03:52:03.348Z,24.00
2019-04-21T03:57:10.954Z,56.00
2019-04-21T03:59:12.289Z,68.00
2019-04-21T04:00:06.286Z,76.00
2019-04-21T04:01:04.241Z,88.00
2019-04-21T04:02:10.716Z,96.00
2019-04-21T04:03:13.432Z,108.00
2019-04-21T04:05:07.249Z,132.00
2019-04-21T04:10:06.485Z,216.00
2019-04-21T04:11:12.040Z,232.00
2019-04-21T04:11:58.355Z,252.00
2019-04-21T04:12:57.719Z,272.00
2019-04-21T04:14:03.858Z,292.00
2019-04-21T04:14:50.210Z,312.00
2019-04-21T04:16:06.076Z,336.00
2019-04-21T04:17:56.419Z,384.00
2019-04-21T04:21:03.580Z,456.00
2019-04-21T04:23:15.045Z,508.00
2019-04-21T04:24:13.019Z,536.00
2019-04-21T04:25:07.444Z,560.00
2019-04-21T04:26:02.350Z,588.00
2019-04-21T04:27:08.018Z,616.00
2019-04-21T04:33:01.232Z,780.00
2019-04-21T04:34:04.517Z,804.00
2019-04-21T04:35:03.272Z,832.00
2019-04-21T04:37:59.982Z,912.00
2019-04-21T04:39:04.048Z,936.00
2019-04-21T04:40:00.520Z,960.00
2019-04-21T04:42:04.863Z,1008.00
2019-04-21T04:42:55.628Z,1036.00
2019-04-21T04:44:04.875Z,1056.00
2019-04-21T04:45:08.315Z,1084.00
2019-04-21T04:47:05.843Z,1132.00
2019-04-21T04:49:53.473Z,1200.00
2019-04-21T04:52:09.738Z,1244.00
2019-04-21T04:53:03.506Z,1268.00
2019-04-21T04:53:51.198Z,1288.00
2019-04-21T04:56:01.802Z,1332.00
2019-04-21T04:58:04.699Z,1368.00
2019-04-21T05:02:14.971Z,1448.00
2019-04-21T05:03:58.013Z,1492.00
2019-04-21T05:06:10.674Z,1524.00
2019-04-21T05:07:03.531Z,1540.00
2019-04-21T05:08:03.308Z,1556.00
2019-04-21T05:10:05.801Z,1592.00
2019-04-21T05:11:07.896Z,1608.00
2019-04-21T05:12:12.020Z,1624.00
2019-04-21T05:14:03.000Z,1656.00
2019-04-21T05:16:02.187Z,1688.00
2019-04-21T05:16:55.149Z,1704.00
2019-04-21T05:19:06.466Z,1736.00
2019-04-21T05:21:04.047Z,1764.00
2019-04-21T05:22:14.174Z,1780.00
2019-04-21T05:22:58.148Z,1796.00
2019-04-21T05:23:48.545Z,1812.00
2019-04-21T05:24:44.179Z,1828.00
2019-04-21T05:25:41.516Z,1840.00
2019-04-21T05:27:44.823Z,1868.00
2019-04-21T05:28:37.050Z,1880.00
2019-04-21T05:29:55.653Z,1896.00
2019-04-21T05:30:48.965Z,1908.00
2019-04-21T05:31:49.629Z,1920.00
2019-04-21T05:32:56.919Z,1932.00
2019-04-21T05:33:44.893Z,1944.00
2019-04-21T05:34:42.980Z,1956.00
2019-04-21T05:36:46.034Z,1980.00
2019-04-21T05:38:43.623Z,2000.00
2019-04-21T05:39:42.330Z,2016.00
2019-04-21T05:40:39.876Z,2028.00
2019-04-21T05:41:37.306Z,2036.00
2019-04-21T05:42:39.863Z,2052.00
2019-04-21T05:43:46.313Z,2064.00
2019-04-21T05:45:50.002Z,2088.00
2019-04-21T05:47:02.382Z,2100.00
2019-04-21T05:47:46.272Z,2112.00
2019-04-21T05:48:48.287Z,2120.00
2019-04-21T05:49:45.209Z,2132.00
2019-04-21T05:50:46.626Z,2144.00
2019-04-21T05:51:39.888Z,2156.00
2019-04-21T05:52:40.767Z,2164.00
2019-04-21T05:53:49.282Z,2176.00
2019-04-21T05:54:50.201Z,2192.00
2019-04-21T05:55:50.961Z,2196.00
2019-04-21T05:56:53.874Z,2208.00
2019-04-21T05:57:47.380Z,2212.00
2019-04-21T05:58:54.171Z,2228.00
2019-04-21T05:59:51.649Z,2228.00
2019-04-21T06:01:47.034Z,2256.00
2019-04-21T06:02:49.553Z,2260.00
2019-04-21T06:03:49.255Z,2280.00
2019-04-21T06:05:14.480Z,2284.00
2019-04-21T06:06:45.941Z,2296.00
2019-04-21T06:07:46.153Z,2300.00
2019-04-21T06:08:46.921Z,2316.00
2019-04-21T06:09:51.393Z,2316.00
2019-04-21T06:10:52.388Z,2324.00
2019-04-21T06:11:59.813Z,2332.00
2019-04-21T06:12:51.021Z,2352.00
2019-04-21T06:13:58.398Z,2352.00
2019-04-21T06:14:52.117Z,2364.00
2019-04-21T06:16:54.490Z,2376.00
2019-04-21T06:17:54.992Z,2384.00
2019-04-21T06:18:53.172Z,2400.00
2019-04-21T06:19:49.618Z,2404.00
2019-04-21T06:20:46.670Z,2416.00
2019-04-21T06:21:45.520Z,2424.00
2019-04-21T06:22:53.248Z,2440.00
2019-04-21T06:23:46.570Z,2444.00
2019-04-21T06:25:14.581Z,2456.00
2019-04-21T06:27:46.101Z,2492.00
2019-04-21T06:29:02.787Z,2500.00
2019-04-21T06:29:50.128Z,2508.00
2019-04-21T06:32:12.711Z,2528.00
2019-04-21T06:32:49.048Z,2536.00
2019-04-21T06:35:07.160Z,2564.00
2019-04-21T06:35:58.813Z,2576.00
2019-04-21T06:36:47.474Z,2576.00
2019-04-21T06:37:49.149Z,2576.00
2019-04-21T06:38:59.696Z,2600.00
2019-04-21T06:40:03.281Z,2604.00
2019-04-21T06:40:48.388Z,2608.00
2019-04-21T06:41:58.520Z,2628.00
2019-04-21T06:42:53.897Z,2632.00
2019-04-21T06:44:53.791Z,2636.00
2019-04-21T06:45:52.681Z,2644.00
2019-04-21T06:46:45.923Z,2644.00
2019-04-21T06:47:53.967Z,2652.00
2019-04-21T06:48:49.774Z,2660.00
2019-04-21T06:51:43.325Z,2676.00
2019-04-21T06:53:54.510Z,2692.00
2019-04-21T06:54:50.262Z,2696.00
2019-04-21T06:55:44.077Z,2704.00
2019-04-21T06:56:47.915Z,2716.00
2019-04-21T06:57:50.074Z,2720.00
2019-04-21T06:58:48.072Z,2728.00
2019-04-21T06:59:43.429Z,2736.00
2019-04-21T07:00:41.123Z,2744.00
2019-04-21T07:01:48.789Z,2756.00
2019-04-21T07:02:54.917Z,2764.00
2019-04-21T07:03:55.486Z,2768.00
2019-04-21T07:04:50.443Z,2772.00
2019-04-21T07:05:52.098Z,2776.00
2019-04-21T07:06:51.655Z,2784.00
2019-04-21T07:07:54.912Z,2788.00
2019-04-21T07:09:52.687Z,2800.00
2019-04-21T07:10:43.537Z,2808.00
2019-04-21T07:11:44.990Z,2816.00
2019-04-21T07:12:48.270Z,2820.00
2019-04-21T07:13:50.969Z,2828.00
2019-04-21T07:14:43.792Z,2832.00
2019-04-21T07:15:43.941Z,2844.00
2019-04-21T07:16:50.880Z,2852.00
2019-04-21T07:17:45.716Z,2860.00
2019-04-21T07:18:53.776Z,2860.00
2019-04-21T07:20:50.446Z,2896.00
2019-04-21T07:22:50.972Z,2964.00
2019-04-21T07:23:47.218Z,3044.00
2019-04-21T07:24:42.807Z,3228.00
2019-04-21T07:25:48.039Z,3620.00
2019-04-21T07:26:44.516Z,3912.00
2019-04-21T07:28:47.918Z,4000.00
2019-04-21T07:29:47.468Z,4012.00
2019-04-21T07:31:54.379Z,4048.00
2019-04-21T07:32:49.425Z,4076.00
2019-04-21T07:33:54.318Z,4108.00
2019-04-21T07:34:45.919Z,4160.00
2019-04-21T07:35:46.086Z,4208.00
2019-04-21T07:36:52.634Z,4172.00
2019-04-21T07:38:41.161Z,4100.00
2019-04-21T07:39:46.560Z,4092.00
2019-04-21T07:40:38.888Z,4084.00
2019-04-21T07:42:39.986Z,4052.00
2019-04-21T07:43:40.946Z,4044.00
2019-04-21T07:44:35.009Z,4032.00
2019-04-21T07:45:40.165Z,4016.00
2019-04-21T07:46:38.054Z,4028.00
2019-04-21T07:47:39.640Z,4024.00
2019-04-21T07:48:46.172Z,4016.00
2019-04-21T07:49:46.706Z,4024.00
2019-04-21T07:50:46.905Z,4028.00
2019-04-21T07:51:47.746Z,4032.00
2019-04-21T07:52:49.290Z,4044.00
2019-04-21T07:53:51.318Z,4036.00
2019-04-21T07:54:55.479Z,4048.00
2019-04-21T07:56:30.830Z,4072.00
2019-04-21T07:57:37.559Z,4080.00
2019-04-21T07:58:49.054Z,4092.00
2019-04-21T07:59:55.137Z,4112.00
2019-04-21T08:01:45.332Z,4136.00
2019-04-21T08:02:40.317Z,4152.00
2019-04-21T08:03:46.764Z,4172.00
2019-04-21T08:04:55.842Z,4196.00
2019-04-21T08:05:45.745Z,4216.00
2019-04-21T08:06:46.467Z,4248.00
2019-04-21T08:07:52.158Z,4272.00
2019-04-21T08:08:41.072Z,4296.00
2019-04-21T08:09:40.944Z,4312.00
2019-04-21T08:10:39.152Z,4332.00
2019-04-21T08:11:37.084Z,4348.00
2019-04-21T08:12:37.962Z,4364.00
2019-04-21T08:14:43.528Z,4380.00
2019-04-21T08:15:44.601Z,4388.00
2019-04-21T08:17:42.618Z,4408.00
2019-04-21T08:18:48.693Z,4432.00
2019-04-21T08:20:44.149Z,4496.00
2019-04-21T08:22:46.806Z,4536.00
2019-04-21T08:23:41.590Z,4556.00
2019-04-21T08:24:47.068Z,4568.00
2019-04-21T08:25:52.927Z,4568.00
2019-04-21T08:26:44.952Z,4588.00
2019-04-21T08:27:52.621Z,4620.00
2019-04-21T08:28:49.499Z,4656.00
2019-04-21T08:29:47.744Z,4684.00
2019-04-21T08:30:43.160Z,4716.00
2019-04-21T08:32:02.890Z,4776.00
2019-04-21T08:32:52.797Z,4796.00
2019-04-21T08:34:02.019Z,4804.00
2019-04-21T08:34:49.649Z,4824.00
2019-04-21T08:36:05.952Z,4848.00
2019-04-21T08:36:40.294Z,4876.00
2019-04-21T08:37:43.346Z,4892.00
2019-04-21T08:38:45.998Z,4936.00
2019-04-21T08:39:47.861Z,4948.00
2019-04-21T08:41:48.442Z,5028.00
2019-04-21T08:42:46.647Z,5076.00
2019-04-21T08:44:49.293Z,5136.00
2019-04-21T08:45:45.331Z,5176.00
2019-04-21T08:46:50.776Z,5208.00
2019-04-21T08:48:43.918Z,5268.00
2019-04-21T08:49:45.437Z,5316.00
2019-04-21T08:50:44.156Z,5344.00
2019-04-21T08:52:04.075Z,5352.00
2019-04-21T08:53:47.647Z,5428.00
2019-04-21T08:54:44.899Z,5428.00
2019-04-21T08:55:39.741Z,5436.00
2019-04-21T08:56:41.657Z,5456.00
2019-04-21T08:57:50.670Z,5504.00
2019-04-21T08:58:41.499Z,5536.00
2019-04-21T09:00:46.832Z,5596.00
2019-04-21T09:01:47.390Z,5624.00
2019-04-21T09:02:43.135Z,5644.00
2019-04-21T09:04:41.106Z,5720.00
2019-04-21T09:05:45.639Z,5764.00
2019-04-21T09:06:54.097Z,5816.00
2019-04-21T09:07:44.732Z,5844.00
2019-04-21T09:08:39.638Z,5856.00
2019-04-21T09:10:39.191Z,5928.00
2019-04-21T09:11:40.420Z,5980.00
2019-04-21T09:13:42.611Z,6068.00
2019-04-21T09:14:41.929Z,6092.00
2019-04-21T09:15:44.058Z,6136.00
2019-04-21T09:16:39.677Z,6176.00
2019-04-21T09:20:47.367Z,6360.00
2019-04-21T09:21:45.556Z,6364.00
2019-04-21T09:22:36.632Z,6364.00
2019-04-21T09:23:39.193Z,6436.00
2019-04-21T09:24:41.027Z,6492.00
2019-04-21T09:26:34.931Z,6568.00
2019-04-21T09:27:36.627Z,6600.00
2019-04-21T09:28:37.078Z,6668.00
2019-04-21T09:30:22.090Z,6804.00
2019-04-21T09:31:28.260Z,6836.00
2019-04-21T09:32:25.211Z,6892.00
2019-04-21T09:34:30.084Z,7032.00
2019-04-21T09:35:22.704Z,7072.00
2019-04-21T09:36:25.474Z,7132.00
2019-04-21T09:37:33.000Z,7180.00
2019-04-21T09:38:29.848Z,7244.00
2019-04-21T09:39:25.558Z,7304.00
2019-04-21T09:40:30.109Z,7392.00
2019-04-21T09:42:32.288Z,7528.00
2019-04-21T09:43:30.747Z,7588.00
2019-04-21T09:45:22.950Z,7668.00
2019-04-21T09:46:23.107Z,7696.00
2019-04-21T09:47:24.806Z,7768.00
2019-04-21T09:48:24.220Z,7820.00
2019-04-21T09:49:27.021Z,7924.00
2019-04-21T09:50:22.232Z,7960.00
2019-04-21T09:51:21.867Z,8016.00
2019-04-21T09:54:27.776Z,8112.00
2019-04-21T09:55:25.049Z,8220.00
2019-04-21T09:56:31.162Z,8244.00
2019-04-21T09:58:31.070Z,8380.00
2019-04-21T09:59:28.447Z,8440.00
2019-04-21T10:00:25.255Z,8460.00
2019-04-21T10:01:31.807Z,8512.00
2019-04-21T10:02:35.653Z,8564.00
2019-04-21T10:03:23.096Z,8640.00
2019-04-21T10:04:23.095Z,8756.00
2019-04-21T10:05:21.860Z,8856.00
2019-04-21T10:06:21.989Z,8912.00
2019-04-21T10:08:22.893Z,9032.00
2019-04-21T10:09:22.075Z,9088.00
2019-04-21T10:10:22.950Z,9188.00
2019-04-21T10:11:22.608Z,9316.00
2019-04-21T10:12:21.898Z,9356.00
2019-04-21T10:13:22.987Z,9400.00
2019-04-21T10:15:23.607Z,9508.00
2019-04-21T10:16:22.260Z,9624.00
2019-04-21T10:17:21.973Z,9660.00
2019-04-21T10:18:22.109Z,9740.00
2019-04-21T10:19:23.246Z,9836.00
2019-04-21T10:20:22.364Z,9928.00
2019-04-21T10:21:24.460Z,10032.00
2019-04-21T10:22:23.243Z,10120.00
2019-04-21T10:25:22.826Z,10492.00
2019-04-21T10:30:22.496Z,11044.00
2019-04-21T10:32:25.358Z,11392.00
2019-04-21T10:33:42.338Z,11512.00
2019-04-21T10:34:23.551Z,11672.00
2019-04-21T10:35:24.337Z,11812.00
2019-04-21T10:39:22.428Z,12688.00
2019-04-21T10:40:23.370Z,13084.00
2019-04-21T10:41:23.299Z,13620.00
2019-04-21T10:42:21.944Z,14564.00
2019-04-21T10:43:22.608Z,21024.00
2019-04-21T10:44:23.143Z,51168.00
2019-04-21T10:45:23.089Z,71264.00
2019-04-21T10:47:22.794Z,77056.00
2019-04-21T10:49:22.586Z,79232.00
2019-04-21T10:50:25.179Z,80224.00
2019-04-21T10:52:22.855Z,79296.00
2019-04-21T10:53:22.913Z,76960.00
2019-04-21T10:54:22.002Z,78496.00
2019-04-21T10:55:41.058Z,80736.00
2019-04-21T10:57:22.445Z,83392.00
2019-04-21T10:58:22.681Z,80160.00
2019-04-21T10:59:22.621Z,77600.00
2019-04-21T11:00:21.788Z,77632.00
2019-04-21T11:01:23.062Z,81344.00
2019-04-21T11:02:23.031Z,80704.00
2019-04-21T11:06:22.147Z,81024.00
2019-04-21T11:07:27.530Z,81632.00
2019-04-21T11:08:25.564Z,79776.00
2019-04-21T11:09:22.057Z,76896.00
2019-04-21T11:10:23.234Z,77248.00
2019-04-21T11:11:23.897Z,76512.00
2019-04-21T11:12:21.808Z,78336.00
2019-04-21T11:13:23.002Z,80288.00
2019-04-21T11:14:23.028Z,79936.00
2019-04-21T11:15:23.231Z,81120.00
2019-04-21T11:16:21.823Z,82080.00
2019-04-21T11:18:23.958Z,80416.00
2019-04-21T11:19:22.239Z,78592.00
2019-04-21T11:20:22.794Z,74112.00
2019-04-21T11:22:23.061Z,80256.00
2019-04-21T11:23:23.030Z,82784.00
2019-04-21T11:24:23.030Z,84640.00
2019-04-21T11:26:22.096Z,81088.00
2019-04-21T11:27:22.623Z,81792.00
2019-04-21T11:28:22.882Z,80576.00
2019-04-21T11:29:23.284Z,82464.00
2019-04-21T11:30:23.236Z,83200.00
2019-04-21T11:31:22.938Z,83360.00
2019-04-21T11:32:23.351Z,83648.00
2019-04-21T11:33:22.811Z,79872.00
2019-04-21T11:34:22.996Z,78560.00
2019-04-21T11:35:21.781Z,82240.00
2019-04-21T11:36:22.326Z,79488.00
2019-04-21T11:37:21.981Z,74720.00
2019-04-21T11:38:25.305Z,72320.00
2019-04-21T11:41:23.726Z,75936.00
2019-04-21T11:42:23.783Z,78624.00
2019-04-21T11:44:24.613Z,80896.00
2019-04-21T11:45:22.234Z,80480.00
2019-04-21T11:46:22.477Z,83680.00
2019-04-21T11:47:23.075Z,83232.00
2019-04-21T11:49:22.355Z,74752.00
2019-04-21T11:50:22.970Z,75488.00
2019-04-21T11:51:22.776Z,80992.00
2019-04-21T11:53:23.177Z,77632.00
2019-04-21T11:54:22.586Z,76160.00
2019-04-21T11:55:22.911Z,76800.00
2019-04-21T11:56:23.091Z,75904.00
2019-04-21T11:57:27.842Z,73824.00
2019-04-21T11:58:21.922Z,73888.00
2019-04-21T11:59:21.842Z,75008.00
2019-04-21T12:00:22.046Z,73728.00
2019-04-21T12:02:21.967Z,74080.00
2019-04-21T12:03:22.159Z,74016.00
2019-04-21T12:05:23.580Z,76864.00
2019-04-21T12:06:28.596Z,73568.00
2019-04-21T12:07:22.935Z,72256.00
2019-04-21T12:08:30.292Z,73760.00
2019-04-21T12:09:23.087Z,74752.00
2019-04-21T12:11:25.126Z,78816.00
2019-04-21T12:12:23.199Z,76576.00
2019-04-21T12:17:23.626Z,76576.00
2019-04-21T12:18:22.251Z,73408.00
2019-04-21T12:19:22.864Z,67776.00
2019-04-21T12:20:21.939Z,62880.00
2019-04-21T12:23:22.785Z,62816.00
2019-04-21T12:24:22.402Z,64736.00
2019-04-21T12:26:22.121Z,64448.00
2019-04-21T12:27:22.252Z,62560.00
2019-04-21T12:30:23.920Z,63552.00
2019-04-21T12:31:23.443Z,63616.00
2019-04-21T12:33:22.352Z,60896.00
2019-04-21T12:34:21.918Z,63104.00
2019-04-21T12:35:21.989Z,60256.00
2019-04-21T12:36:22.219Z,59904.00
2019-04-21T12:37:22.765Z,64640.00
2019-04-21T12:38:32.104Z,63840.00
2019-04-21T12:39:23.040Z,62560.00
2019-04-21T12:40:22.476Z,62848.00
2019-04-21T12:41:22.596Z,63488.00
2019-04-21T12:42:22.872Z,59872.00
2019-04-21T12:43:21.811Z,59776.00
2019-04-21T12:44:22.581Z,60032.00
2019-04-21T12:45:22.116Z,60096.00
2019-04-21T12:49:22.159Z,60192.00
2019-04-21T12:50:21.653Z,62592.00
2019-04-21T12:51:21.948Z,61952.00
2019-04-21T12:53:23.409Z,59392.00
2019-04-21T12:54:22.031Z,57920.00
2019-04-21T12:56:23.284Z,54144.00
2019-04-21T12:57:21.660Z,53536.00
2019-04-21T12:58:21.656Z,53856.00
2019-04-21T12:59:22.046Z,54848.00
2019-04-21T13:01:23.074Z,51456.00
2019-04-21T13:02:21.978Z,51168.00
2019-04-21T13:03:23.381Z,52256.00
2019-04-21T13:04:21.873Z,53056.00
2019-04-21T13:05:21.998Z,53152.00
2019-04-21T13:06:21.962Z,52000.00
2019-04-21T13:07:21.789Z,51488.00
2019-04-21T13:08:21.788Z,51296.00
2019-04-21T13:09:22.225Z,52448.00
2019-04-21T13:10:22.208Z,53920.00
2019-04-21T13:11:21.797Z,54560.00
2019-04-21T13:12:22.859Z,52768.00
2019-04-21T13:13:23.916Z,51264.00
2019-04-21T13:14:22.126Z,51808.00
2019-04-21T13:15:21.915Z,52000.00
2019-04-21T13:16:21.676Z,50752.00
2019-04-21T13:19:23.077Z,54816.00
2019-04-21T13:20:23.203Z,54336.00
2019-04-21T13:21:22.445Z,55520.00
2019-04-21T13:22:21.753Z,56000.00
2019-04-21T13:23:23.094Z,57344.00
2019-04-21T13:24:22.075Z,56384.00
2019-04-21T13:25:21.726Z,55488.00
2019-04-21T13:26:30.561Z,54816.00
2019-04-21T13:27:22.657Z,56064.00
2019-04-21T13:28:22.790Z,56768.00
2019-04-21T13:29:21.667Z,56736.00
2019-04-21T13:30:22.317Z,56672.00
2019-04-21T13:31:22.369Z,57696.00
2019-04-21T13:32:21.739Z,56064.00
2019-04-21T13:33:22.871Z,55296.00
2019-04-21T13:34:22.211Z,56224.00
2019-04-21T13:35:23.025Z,53248.00
2019-04-21T13:36:23.348Z,51776.00
2019-04-21T13:38:32.588Z,48576.00
2019-04-21T13:40:39.788Z,47904.00
2019-04-21T13:41:40.897Z,49984.00
2019-04-21T13:42:31.408Z,50080.00
2019-04-21T13:43:23.141Z,48128.00
2019-04-21T13:44:23.299Z,47872.00
2019-04-21T13:45:21.979Z,50208.00
2019-04-21T13:46:22.811Z,51520.00
2019-04-21T13:47:22.754Z,50240.00
2019-04-21T13:48:22.404Z,51264.00
2019-04-21T13:49:21.669Z,51040.00
2019-04-21T13:50:21.778Z,50272.00
2019-04-21T13:51:22.908Z,44800.00
2019-04-21T13:52:22.783Z,33376.00
2019-04-21T13:53:22.742Z,21664.00
2019-04-21T13:54:22.046Z,17088.00
2019-04-21T13:55:21.673Z,16160.00
2019-04-21T13:56:22.716Z,15744.00
2019-04-21T13:57:22.702Z,15520.00
2019-04-21T13:58:22.122Z,15296.00
2019-04-21T13:59:22.476Z,15108.00
2019-04-21T14:00:21.782Z,15100.00
2019-04-21T14:01:23.419Z,15264.00
2019-04-21T14:02:22.652Z,15328.00
2019-04-21T14:04:23.214Z,18336.00
2019-04-21T14:05:22.401Z,27424.00
2019-04-21T14:06:22.573Z,39328.00
2019-04-21T14:07:21.976Z,45216.00
2019-04-21T14:08:23.039Z,45984.00
2019-04-21T14:09:21.934Z,45984.00
2019-04-21T14:10:21.951Z,44992.00
2019-04-21T14:11:22.963Z,34752.00
2019-04-21T14:12:23.360Z,20320.00
2019-04-21T14:13:22.557Z,14844.00
2019-04-21T14:14:21.980Z,13908.00
2019-04-21T14:15:22.171Z,13556.00
2019-04-21T14:17:22.484Z,13348.00
2019-04-21T14:18:22.653Z,13324.00
2019-04-21T14:19:21.718Z,13420.00
2019-04-21T14:20:21.687Z,13308.00
2019-04-21T14:21:23.118Z,13276.00
2019-04-21T14:22:22.200Z,13284.00
2019-04-21T14:23:32.227Z,13264.00
2019-04-21T14:25:22.026Z,13176.00
2019-04-21T14:26:22.487Z,13068.00
2019-04-21T14:27:21.741Z,13012.00
2019-04-21T14:28:22.048Z,12988.00
2019-04-21T14:29:21.768Z,12924.00
2019-04-21T14:30:22.774Z,12892.00
2019-04-21T14:31:22.254Z,12880.00
2019-04-21T14:32:22.347Z,12828.00
2019-04-21T14:35:22.885Z,12844.00
2019-04-21T14:36:22.910Z,12880.00
2019-04-21T14:37:22.618Z,12920.00
2019-04-21T14:38:22.761Z,12864.00
2019-04-21T14:39:22.849Z,12924.00
2019-04-21T14:40:24.366Z,12900.00
2019-04-21T14:41:22.174Z,12888.00
2019-04-21T14:42:22.219Z,12764.00
2019-04-21T14:43:23.674Z,12740.00
2019-04-21T14:44:22.755Z,12700.00
2019-04-21T14:45:22.958Z,12644.00
2019-04-21T14:46:21.811Z,12640.00
2019-04-21T14:47:23.036Z,12648.00
2019-04-21T14:48:23.124Z,12636.00
2019-04-21T14:49:23.506Z,12740.00
2019-04-21T14:50:22.347Z,12656.00
2019-04-21T14:51:22.984Z,12636.00
2019-04-21T14:52:23.072Z,12648.00
2019-04-21T14:53:23.393Z,12676.00
2019-04-21T14:54:22.526Z,12656.00
2019-04-21T14:56:21.724Z,12760.00
2019-04-21T14:58:23.278Z,12884.00
2019-04-21T14:59:21.679Z,12960.00
2019-04-21T15:00:22.868Z,12856.00
2019-04-21T15:01:22.000Z,12600.00
2019-04-21T15:02:22.334Z,12548.00
2019-04-21T15:03:21.753Z,12648.00
2019-04-21T15:04:22.456Z,14976.00
2019-04-21T15:05:21.812Z,20288.00
2019-04-21T15:06:21.614Z,24800.00
2019-04-21T15:07:21.763Z,24672.00
2019-04-21T15:08:21.627Z,22528.00
2019-04-21T15:10:25.325Z,13472.00
2019-04-21T15:11:22.218Z,11636.00
2019-04-21T15:13:23.622Z,11004.00
2019-04-21T15:14:22.254Z,10888.00
2019-04-21T15:15:21.593Z,10764.00
2019-04-21T15:16:22.828Z,10628.00
2019-04-21T15:17:23.016Z,10544.00
2019-04-21T15:18:22.945Z,10448.00
2019-04-21T15:19:22.444Z,10312.00
2019-04-21T15:20:23.386Z,10136.00
2019-04-21T15:21:21.809Z,9964.00
2019-04-21T15:22:21.698Z,9828.00